Terminal Aerodrome Forecast
Issued by NWS

Home | Current Version | Previous Version | Text Only | Print | Product List | Glossary Off
Versions: 1 2 3 4 5 6 7 8 9 10 11 12 13 14 15 16 17 18 19 20 21 22 23 24 25 26 27 28 29 30 31

000
FTUS45 KGGW 130528
TAFOLF
TAF
KOLF 130528Z 1306/1406 08012KT P6SM VCSH SCT020 OVC035
      TEMPO 1306/1309 3SM -SN SCT010 OVC025
     FM131200 07006KT P6SM BKN110
     FM131800 VRB04KT 5SM -FZRA SCT030 BKN070
     FM132200 29007KT P6SM VCSH OVC050=

USA.gov is the U.S. government's official web portal to all federal, state and local government web resources and services.